sensor_id;sensor_type;location;lat;lon;timestamp;P1;durP1;ratioP1;P2;durP2;ratioP2
15982;SDS011;14442;50.196;8.096;2022-09-24T00:01:24;1.50;;;0.60;;
15982;SDS011;14442;50.196;8.096;2022-09-24T00:03:53;1.00;;;0.90;;
15982;SDS011;14442;50.196;8.096;2022-09-24T00:06:21;2.70;;;1.30;;
15982;SDS011;14442;50.196;8.096;2022-09-24T00:08:49;3.00;;;0.97;;
15982;SDS011;14442;50.196;8.096;2022-09-24T00:11:19;1.20;;;0.60;;
15982;SDS011;14442;50.196;8.096;2022-09-24T00:13:47;1.47;;;0.80;;
15982;SDS011;14442;50.196;8.096;2022-09-24T00:16:16;0.73;;;0.70;;
15982;SDS011;14442;50.196;8.096;2022-09-24T00:18:43;2.00;;;0.90;;
15982;SDS011;14442;50.196;8.096;2022-09-24T00:21:12;1.73;;;0.67;;
15982;SDS011;14442;50.196;8.096;2022-09-24T00:23:39;1.30;;;1.03;;
15982;SDS011;14442;50.196;8.096;2022-09-24T00:26:08;1.07;;;0.70;;
15982;SDS011;14442;50.196;8.096;2022-09-24T00:28:55;1.43;;;0.80;;
15982;SDS011;14442;50.196;8.096;2022-09-24T00:31:22;1.20;;;0.70;;
15982;SDS011;14442;50.196;8.096;2022-09-24T00:33:49;0.70;;;0.67;;
15982;SDS011;14442;50.196;8.096;2022-09-24T00:36:16;1.20;;;0.87;;
15982;SDS011;14442;50.196;8.096;2022-09-24T00:38:44;1.00;;;0.70;;
15982;SDS011;14442;50.196;8.096;2022-09-24T00:41:13;0.50;;;0.50;;
15982;SDS011;14442;50.196;8.096;2022-09-24T00:43:40;0.83;;;0.77;;
15982;SDS011;14442;50.196;8.096;2022-09-24T00:46:10;1.77;;;0.77;;
15982;SDS011;14442;50.196;8.096;2022-09-24T00:48:40;0.70;;;0.70;;
15982;SDS011;14442;50.196;8.096;2022-09-24T00:51:07;1.87;;;0.70;;
15982;SDS011;14442;50.196;8.096;2022-09-24T00:53:38;0.90;;;0.80;;
15982;SDS011;14442;50.196;8.096;2022-09-24T00:56:05;0.70;;;0.70;;
15982;SDS011;14442;50.196;8.096;2022-09-24T00:58:35;0.97;;;0.97;;
15982;SDS011;14442;50.196;8.096;2022-09-24T01:01:02;0.60;;;0.60;;
15982;SDS011;14442;50.196;8.096;2022-09-24T01:03:32;0.90;;;0.80;;
15982;SDS011;14442;50.196;8.096;2022-09-24T01:06:05;0.70;;;0.70;;
15982;SDS011;14442;50.196;8.096;2022-09-24T01:08:32;0.83;;;0.80;;
15982;SDS011;14442;50.196;8.096;2022-09-24T01:11:03;1.03;;;0.53;;
15982;SDS011;14442;50.196;8.096;2022-09-24T01:13:44;0.93;;;0.70;;
15982;SDS011;14442;50.196;8.096;2022-09-24T01:16:35;1.20;;;1.03;;
15982;SDS011;14442;50.196;8.096;2022-09-24T01:19:14;0.73;;;0.60;;
15982;SDS011;14442;50.196;8.096;2022-09-24T01:21:54;0.60;;;0.60;;
15982;SDS011;14442;50.196;8.096;2022-09-24T01:27:18;0.83;;;0.77;;
15982;SDS011;14442;50.196;8.096;2022-09-24T01:29:53;0.80;;;0.80;;
15982;SDS011;14442;50.196;8.096;2022-09-24T01:32:27;0.77;;;0.70;;
15982;SDS011;14442;50.196;8.096;2022-09-24T01:34:59;1.00;;;0.90;;
15982;SDS011;14442;50.196;8.096;2022-09-24T01:37:31;0.80;;;0.73;;
15982;SDS011;14442;50.196;8.096;2022-09-24T01:39:59;0.70;;;0.70;;
15982;SDS011;14442;50.196;8.096;2022-09-24T01:42:28;1.07;;;0.60;;
15982;SDS011;14442;50.196;8.096;2022-09-24T01:44:58;1.23;;;0.90;;
15982;SDS011;14442;50.196;8.096;2022-09-24T01:47:28;0.73;;;0.40;;
15982;SDS011;14442;50.196;8.096;2022-09-24T01:49:57;1.03;;;0.63;;
15982;SDS011;14442;50.196;8.096;2022-09-24T01:52:26;1.10;;;0.70;;
15982;SDS011;14442;50.196;8.096;2022-09-24T01:54:55;0.73;;;0.73;;
15982;SDS011;14442;50.196;8.096;2022-09-24T01:57:24;0.70;;;0.70;;
15982;SDS011;14442;50.196;8.096;2022-09-24T01:59:56;0.60;;;0.60;;
15982;SDS011;14442;50.196;8.096;2022-09-24T02:02:27;0.53;;;0.50;;
15982;SDS011;14442;50.196;8.096;2022-09-24T02:05:00;0.80;;;0.80;;
15982;SDS011;14442;50.196;8.096;2022-09-24T02:07:32;0.73;;;0.73;;
15982;SDS011;14442;50.196;8.096;2022-09-24T02:10:03;0.50;;;0.50;;
15982;SDS011;14442;50.196;8.096;2022-09-24T02:12:31;0.70;;;0.70;;
15982;SDS011;14442;50.196;8.096;2022-09-24T02:15:05;0.57;;;0.57;;
15982;SDS011;14442;50.196;8.096;2022-09-24T02:17:37;0.40;;;0.40;;
15982;SDS011;14442;50.196;8.096;2022-09-24T02:20:08;0.77;;;0.60;;
15982;SDS011;14442;50.196;8.096;2022-09-24T02:22:38;0.40;;;0.40;;
15982;SDS011;14442;50.196;8.096;2022-09-24T02:25:07;0.50;;;0.50;;
15982;SDS011;14442;50.196;8.096;2022-09-24T02:27:37;0.97;;;0.47;;
15982;SDS011;14442;50.196;8.096;2022-09-24T02:30:07;0.60;;;0.60;;
15982;SDS011;14442;50.196;8.096;2022-09-24T02:32:35;1.37;;;0.70;;
15982;SDS011;14442;50.196;8.096;2022-09-24T02:35:05;0.43;;;0.43;;
15982;SDS011;14442;50.196;8.096;2022-09-24T02:37:34;0.67;;;0.50;;
15982;SDS011;14442;50.196;8.096;2022-09-24T02:40:02;0.60;;;0.50;;
15982;SDS011;14442;50.196;8.096;2022-09-24T02:42:30;0.53;;;0.53;;
15982;SDS011;14442;50.196;8.096;2022-09-24T02:44:57;0.80;;;0.80;;
15982;SDS011;14442;50.196;8.096;2022-09-24T02:47:25;0.83;;;0.40;;
15982;SDS011;14442;50.196;8.096;2022-09-24T02:49:53;0.77;;;0.70;;
15982;SDS011;14442;50.196;8.096;2022-09-24T02:52:20;0.60;;;0.60;;
15982;SDS011;14442;50.196;8.096;2022-09-24T02:54:46;0.60;;;0.57;;
15982;SDS011;14442;50.196;8.096;2022-09-24T02:57:14;0.83;;;0.70;;
15982;SDS011;14442;50.196;8.096;2022-09-24T02:59:41;0.70;;;0.70;;
15982;SDS011;14442;50.196;8.096;2022-09-24T03:02:07;0.50;;;0.50;;
15982;SDS011;14442;50.196;8.096;2022-09-24T03:04:35;0.60;;;0.60;;
15982;SDS011;14442;50.196;8.096;2022-09-24T03:07:03;0.53;;;0.53;;
15982;SDS011;14442;50.196;8.096;2022-09-24T03:09:30;0.50;;;0.50;;
15982;SDS011;14442;50.196;8.096;2022-09-24T03:11:56;0.70;;;0.50;;
15982;SDS011;14442;50.196;8.096;2022-09-24T03:14:24;0.60;;;0.60;;
15982;SDS011;14442;50.196;8.096;2022-09-24T03:16:51;0.50;;;0.50;;
15982;SDS011;14442;50.196;8.096;2022-09-24T03:19:18;0.60;;;0.60;;
15982;SDS011;14442;50.196;8.096;2022-09-24T03:21:46;0.47;;;0.47;;
15982;SDS011;14442;50.196;8.096;2022-09-24T03:24:12;0.60;;;0.60;;
15982;SDS011;14442;50.196;8.096;2022-09-24T03:26:39;0.50;;;0.50;;
15982;SDS011;14442;50.196;8.096;2022-09-24T03:29:06;0.50;;;0.50;;
15982;SDS011;14442;50.196;8.096;2022-09-24T03:31:33;0.60;;;0.60;;
15982;SDS011;14442;50.196;8.096;2022-09-24T03:33:59;0.80;;;0.60;;
15982;SDS011;14442;50.196;8.096;2022-09-24T03:36:26;0.70;;;0.70;;
15982;SDS011;14442;50.196;8.096;2022-09-24T03:38:55;0.40;;;0.40;;
15982;SDS011;14442;50.196;8.096;2022-09-24T03:41:22;0.57;;;0.40;;
15982;SDS011;14442;50.196;8.096;2022-09-24T03:43:49;0.77;;;0.40;;
15982;SDS011;14442;50.196;8.096;2022-09-24T03:46:16;0.50;;;0.50;;
15982;SDS011;14442;50.196;8.096;2022-09-24T03:48:43;0.70;;;0.70;;
15982;SDS011;14442;50.196;8.096;2022-09-24T03:51:11;0.60;;;0.60;;
15982;SDS011;14442;50.196;8.096;2022-09-24T03:53:39;0.70;;;0.57;;
15982;SDS011;14442;50.196;8.096;2022-09-24T03:56:08;0.63;;;0.50;;
15982;SDS011;14442;50.196;8.096;2022-09-24T03:58:36;0.57;;;0.57;;
15982;SDS011;14442;50.196;8.096;2022-09-24T04:01:03;0.60;;;0.50;;
15982;SDS011;14442;50.196;8.096;2022-09-24T04:03:31;0.50;;;0.50;;
15982;SDS011;14442;50.196;8.096;2022-09-24T04:05:58;0.53;;;0.53;;
15982;SDS011;14442;50.196;8.096;2022-09-24T04:08:25;0.50;;;0.50;;
15982;SDS011;14442;50.196;8.096;2022-09-24T04:10:52;0.40;;;0.40;;
15982;SDS011;14442;50.196;8.096;2022-09-24T04:13:20;0.50;;;0.50;;
15982;SDS011;14442;50.196;8.096;2022-09-24T04:15:47;0.40;;;0.40;;
15982;SDS011;14442;50.196;8.096;2022-09-24T04:18:15;0.83;;;0.50;;
15982;SDS011;14442;50.196;8.096;2022-09-24T04:20:42;0.63;;;0.50;;
15982;SDS011;14442;50.196;8.096;2022-09-24T04:23:09;1.43;;;0.40;;
15982;SDS011;14442;50.196;8.096;2022-09-24T04:25:36;0.40;;;0.40;;
15982;SDS011;14442;50.196;8.096;2022-09-24T04:28:04;0.50;;;0.50;;
15982;SDS011;14442;50.196;8.096;2022-09-24T04:30:34;0.40;;;0.40;;
15982;SDS011;14442;50.196;8.096;2022-09-24T04:33:02;0.50;;;0.50;;
15982;SDS011;14442;50.196;8.096;2022-09-24T04:35:29;0.90;;;0.50;;
15982;SDS011;14442;50.196;8.096;2022-09-24T04:37:59;0.50;;;0.50;;
15982;SDS011;14442;50.196;8.096;2022-09-24T04:40:26;0.63;;;0.60;;
15982;SDS011;14442;50.196;8.096;2022-09-24T04:42:53;0.60;;;0.60;;
15982;SDS011;14442;50.196;8.096;2022-09-24T04:45:20;0.40;;;0.40;;
15982;SDS011;14442;50.196;8.096;2022-09-24T04:47:50;0.50;;;0.50;;
15982;SDS011;14442;50.196;8.096;2022-09-24T04:50:21;0.33;;;0.33;;
15982;SDS011;14442;50.196;8.096;2022-09-24T04:52:48;0.37;;;0.37;;
15982;SDS011;14442;50.196;8.096;2022-09-24T04:55:15;0.50;;;0.50;;
15982;SDS011;14442;50.196;8.096;2022-09-24T04:57:43;0.43;;;0.43;;
15982;SDS011;14442;50.196;8.096;2022-09-24T05:00:11;0.50;;;0.50;;
15982;SDS011;14442;50.196;8.096;2022-09-24T05:02:41;0.40;;;0.40;;
15982;SDS011;14442;50.196;8.096;2022-09-24T05:05:10;0.30;;;0.30;;
15982;SDS011;14442;50.196;8.096;2022-09-24T05:07:38;1.13;;;0.47;;
15982;SDS011;14442;50.196;8.096;2022-09-24T05:10:07;0.40;;;0.40;;
15982;SDS011;14442;50.196;8.096;2022-09-24T05:12:33;0.50;;;0.50;;
15982;SDS011;14442;50.196;8.096;2022-09-24T05:15:00;0.40;;;0.40;;
15982;SDS011;14442;50.196;8.096;2022-09-24T05:17:27;0.37;;;0.37;;
15982;SDS011;14442;50.196;8.096;2022-09-24T05:19:54;0.40;;;0.40;;
15982;SDS011;14442;50.196;8.096;2022-09-24T05:22:23;0.40;;;0.40;;
15982;SDS011;14442;50.196;8.096;2022-09-24T05:24:51;0.47;;;0.47;;
15982;SDS011;14442;50.196;8.096;2022-09-24T05:27:18;1.17;;;0.30;;
15982;SDS011;14442;50.196;8.096;2022-09-24T05:29:45;0.60;;;0.60;;
15982;SDS011;14442;50.196;8.096;2022-09-24T05:32:13;0.87;;;0.43;;
15982;SDS011;14442;50.196;8.096;2022-09-24T05:34:41;0.60;;;0.60;;
15982;SDS011;14442;50.196;8.096;2022-09-24T05:37:08;0.77;;;0.50;;
15982;SDS011;14442;50.196;8.096;2022-09-24T05:39:37;0.73;;;0.50;;
15982;SDS011;14442;50.196;8.096;2022-09-24T05:42:03;0.50;;;0.50;;
15982;SDS011;14442;50.196;8.096;2022-09-24T05:44:32;0.77;;;0.40;;
15982;SDS011;14442;50.196;8.096;2022-09-24T05:46:59;0.40;;;0.40;;
15982;SDS011;14442;50.196;8.096;2022-09-24T05:49:26;0.40;;;0.40;;
15982;SDS011;14442;50.196;8.096;2022-09-24T05:51:53;0.40;;;0.40;;
15982;SDS011;14442;50.196;8.096;2022-09-24T05:54:19;0.40;;;0.40;;
15982;SDS011;14442;50.196;8.096;2022-09-24T05:56:48;0.67;;;0.67;;
15982;SDS011;14442;50.196;8.096;2022-09-24T05:59:14;1.00;;;0.47;;
15982;SDS011;14442;50.196;8.096;2022-09-24T06:01:41;0.50;;;0.50;;
15982;SDS011;14442;50.196;8.096;2022-09-24T06:04:08;1.27;;;0.50;;
15982;SDS011;14442;50.196;8.096;2022-09-24T06:06:36;1.63;;;0.70;;
15982;SDS011;14442;50.196;8.096;2022-09-24T06:09:03;0.30;;;0.30;;
15982;SDS011;14442;50.196;8.096;2022-09-24T06:11:30;0.53;;;0.40;;
15982;SDS011;14442;50.196;8.096;2022-09-24T06:14:00;0.30;;;0.30;;
15982;SDS011;14442;50.196;8.096;2022-09-24T06:16:30;0.40;;;0.40;;
15982;SDS011;14442;50.196;8.096;2022-09-24T06:18:58;0.40;;;0.40;;
15982;SDS011;14442;50.196;8.096;2022-09-24T06:21:24;1.60;;;0.50;;
15982;SDS011;14442;50.196;8.096;2022-09-24T06:23:51;1.40;;;0.60;;
15982;SDS011;14442;50.196;8.096;2022-09-24T06:26:18;1.63;;;0.70;;
15982;SDS011;14442;50.196;8.096;2022-09-24T06:28:44;0.90;;;0.40;;
15982;SDS011;14442;50.196;8.096;2022-09-24T06:31:12;1.73;;;0.63;;
15982;SDS011;14442;50.196;8.096;2022-09-24T06:33:39;1.03;;;0.50;;
15982;SDS011;14442;50.196;8.096;2022-09-24T06:36:06;0.50;;;0.50;;
15982;SDS011;14442;50.196;8.096;2022-09-24T06:38:34;1.13;;;0.60;;
15982;SDS011;14442;50.196;8.096;2022-09-24T06:41:03;0.60;;;0.60;;
15982;SDS011;14442;50.196;8.096;2022-09-24T06:43:31;3.77;;;0.97;;
15982;SDS011;14442;50.196;8.096;2022-09-24T06:45:59;5.70;;;1.37;;
15982;SDS011;14442;50.196;8.096;2022-09-24T06:48:29;13.00;;;1.17;;
15982;SDS011;14442;50.196;8.096;2022-09-24T06:50:56;6.10;;;1.17;;
15982;SDS011;14442;50.196;8.096;2022-09-24T06:53:23;8.00;;;1.83;;
15982;SDS011;14442;50.196;8.096;2022-09-24T06:55:50;10.87;;;1.50;;
15982;SDS011;14442;50.196;8.096;2022-09-24T06:58:18;12.47;;;2.17;;
15982;SDS011;14442;50.196;8.096;2022-09-24T07:00:49;10.80;;;1.90;;
15982;SDS011;14442;50.196;8.096;2022-09-24T07:03:18;12.90;;;2.70;;
15982;SDS011;14442;50.196;8.096;2022-09-24T07:05:46;10.27;;;2.23;;
15982;SDS011;14442;50.196;8.096;2022-09-24T07:08:13;15.60;;;2.40;;
15982;SDS011;14442;50.196;8.096;2022-09-24T07:10:43;14.40;;;3.00;;
15982;SDS011;14442;50.196;8.096;2022-09-24T07:13:11;15.17;;;3.40;;
15982;SDS011;14442;50.196;8.096;2022-09-24T07:15:38;13.20;;;3.20;;
15982;SDS011;14442;50.196;8.096;2022-09-24T07:18:05;11.80;;;2.77;;
15982;SDS011;14442;50.196;8.096;2022-09-24T07:20:31;11.80;;;2.67;;
15982;SDS011;14442;50.196;8.096;2022-09-24T07:23:02;9.80;;;2.13;;
15982;SDS011;14442;50.196;8.096;2022-09-24T07:25:29;10.90;;;2.50;;
15982;SDS011;14442;50.196;8.096;2022-09-24T07:27:59;14.40;;;2.33;;
15982;SDS011;14442;50.196;8.096;2022-09-24T07:30:27;10.83;;;1.90;;
15982;SDS011;14442;50.196;8.096;2022-09-24T07:32:54;16.13;;;1.73;;
15982;SDS011;14442;50.196;8.096;2022-09-24T07:35:20;10.90;;;1.93;;
15982;SDS011;14442;50.196;8.096;2022-09-24T07:37:48;13.17;;;2.30;;
15982;SDS011;14442;50.196;8.096;2022-09-24T07:40:23;8.37;;;1.87;;
15982;SDS011;14442;50.196;8.096;2022-09-24T07:42:50;10.60;;;2.00;;
15982;SDS011;14442;50.196;8.096;2022-09-24T07:45:18;9.30;;;2.00;;
15982;SDS011;14442;50.196;8.096;2022-09-24T07:47:45;12.17;;;2.77;;
15982;SDS011;14442;50.196;8.096;2022-09-24T07:50:12;13.83;;;2.00;;
15982;SDS011;14442;50.196;8.096;2022-09-24T07:52:38;15.33;;;2.40;;
15982;SDS011;14442;50.196;8.096;2022-09-24T07:55:06;9.90;;;1.93;;
15982;SDS011;14442;50.196;8.096;2022-09-24T07:57:34;9.57;;;1.70;;
15982;SDS011;14442;50.196;8.096;2022-09-24T08:00:02;7.40;;;1.80;;
15982;SDS011;14442;50.196;8.096;2022-09-24T08:02:29;6.30;;;1.57;;
15982;SDS011;14442;50.196;8.096;2022-09-24T08:04:55;6.97;;;1.53;;
15982;SDS011;14442;50.196;8.096;2022-09-24T08:07:22;16.37;;;2.03;;
15982;SDS011;14442;50.196;8.096;2022-09-24T08:09:49;12.67;;;2.13;;
15982;SDS011;14442;50.196;8.096;2022-09-24T08:12:16;10.57;;;1.53;;
15982;SDS011;14442;50.196;8.096;2022-09-24T08:14:44;10.83;;;2.30;;
15982;SDS011;14442;50.196;8.096;2022-09-24T08:17:10;8.60;;;2.17;;
15982;SDS011;14442;50.196;8.096;2022-09-24T08:19:37;9.20;;;1.63;;
15982;SDS011;14442;50.196;8.096;2022-09-24T08:22:07;12.80;;;1.93;;
15982;SDS011;14442;50.196;8.096;2022-09-24T08:24:34;12.47;;;1.50;;
15982;SDS011;14442;50.196;8.096;2022-09-24T08:27:00;12.70;;;2.20;;
15982;SDS011;14442;50.196;8.096;2022-09-24T08:29:27;12.37;;;2.10;;
15982;SDS011;14442;50.196;8.096;2022-09-24T08:31:55;6.33;;;1.80;;
15982;SDS011;14442;50.196;8.096;2022-09-24T08:34:22;14.17;;;1.87;;
15982;SDS011;14442;50.196;8.096;2022-09-24T08:36:49;8.53;;;1.50;;
15982;SDS011;14442;50.196;8.096;2022-09-24T08:39:15;9.10;;;2.23;;
15982;SDS011;14442;50.196;8.096;2022-09-24T08:41:45;6.80;;;1.93;;
15982;SDS011;14442;50.196;8.096;2022-09-24T08:44:19;9.90;;;2.77;;
15982;SDS011;14442;50.196;8.096;2022-09-24T08:47:13;10.57;;;3.23;;
15982;SDS011;14442;50.196;8.096;2022-09-24T08:49:48;6.20;;;2.73;;
15982;SDS011;14442;50.196;8.096;2022-09-24T08:52:25;12.20;;;3.40;;
15982;SDS011;14442;50.196;8.096;2022-09-24T08:54:57;7.93;;;2.87;;
15982;SDS011;14442;50.196;8.096;2022-09-24T08:57:27;10.13;;;3.53;;
15982;SDS011;14442;50.196;8.096;2022-09-24T08:59:54;6.47;;;3.53;;
15982;SDS011;14442;50.196;8.096;2022-09-24T09:02:27;8.70;;;3.07;;
15982;SDS011;14442;50.196;8.096;2022-09-24T09:05:03;9.13;;;3.87;;
15982;SDS011;14442;50.196;8.096;2022-09-24T09:07:39;7.33;;;3.83;;
15982;SDS011;14442;50.196;8.096;2022-09-24T09:10:15;9.97;;;4.10;;
15982;SDS011;14442;50.196;8.096;2022-09-24T09:12:52;7.33;;;4.17;;
15982;SDS011;14442;50.196;8.096;2022-09-24T09:15:23;12.03;;;4.43;;
15982;SDS011;14442;50.196;8.096;2022-09-24T09:17:55;5.60;;;4.27;;
15982;SDS011;14442;50.196;8.096;2022-09-24T09:20:26;8.37;;;4.27;;
15982;SDS011;14442;50.196;8.096;2022-09-24T09:22:56;9.77;;;3.97;;
15982;SDS011;14442;50.196;8.096;2022-09-24T09:25:29;8.20;;;3.90;;
15982;SDS011;14442;50.196;8.096;2022-09-24T09:28:01;8.87;;;4.47;;
15982;SDS011;14442;50.196;8.096;2022-09-24T09:30:40;8.10;;;4.60;;
15982;SDS011;14442;50.196;8.096;2022-09-24T09:33:18;7.70;;;5.17;;
15982;SDS011;14442;50.196;8.096;2022-09-24T09:35:57;8.87;;;3.70;;
15982;SDS011;14442;50.196;8.096;2022-09-24T09:38:33;6.73;;;4.50;;
15982;SDS011;14442;50.196;8.096;2022-09-24T09:41:05;8.43;;;4.10;;
15982;SDS011;14442;50.196;8.096;2022-09-24T09:43:42;8.03;;;4.40;;
15982;SDS011;14442;50.196;8.096;2022-09-24T09:46:10;8.17;;;4.63;;
15982;SDS011;14442;50.196;8.096;2022-09-24T09:48:44;8.83;;;4.03;;
15982;SDS011;14442;50.196;8.096;2022-09-24T09:51:17;6.93;;;4.40;;
15982;SDS011;14442;50.196;8.096;2022-09-24T09:53:54;7.03;;;4.07;;
15982;SDS011;14442;50.196;8.096;2022-09-24T09:56:23;9.07;;;4.20;;
15982;SDS011;14442;50.196;8.096;2022-09-24T09:58:59;6.23;;;4.50;;
15982;SDS011;14442;50.196;8.096;2022-09-24T10:01:30;5.60;;;3.77;;
15982;SDS011;14442;50.196;8.096;2022-09-24T10:04:00;6.77;;;3.87;;
15982;SDS011;14442;50.196;8.096;2022-09-24T10:06:29;23.40;;;5.50;;
15982;SDS011;14442;50.196;8.096;2022-09-24T10:09:05;20.07;;;5.00;;
15982;SDS011;14442;50.196;8.096;2022-09-24T10:11:33;24.47;;;4.77;;
15982;SDS011;14442;50.196;8.096;2022-09-24T10:14:00;15.00;;;4.77;;
15982;SDS011;14442;50.196;8.096;2022-09-24T10:16:28;13.43;;;3.87;;
15982;SDS011;14442;50.196;8.096;2022-09-24T10:18:54;20.23;;;5.87;;
15982;SDS011;14442;50.196;8.096;2022-09-24T10:21:25;18.40;;;4.80;;
15982;SDS011;14442;50.196;8.096;2022-09-24T10:23:59;32.00;;;6.27;;
15982;SDS011;14442;50.196;8.096;2022-09-24T10:26:34;23.87;;;6.37;;
15982;SDS011;14442;50.196;8.096;2022-09-24T10:29:02;30.80;;;6.03;;
15982;SDS011;14442;50.196;8.096;2022-09-24T10:31:46;26.23;;;5.60;;
15982;SDS011;14442;50.196;8.096;2022-09-24T10:34:17;23.50;;;5.93;;
15982;SDS011;14442;50.196;8.096;2022-09-24T10:36:52;22.73;;;5.53;;
15982;SDS011;14442;50.196;8.096;2022-09-24T10:39:23;25.07;;;5.30;;
15982;SDS011;14442;50.196;8.096;2022-09-24T10:41:50;19.27;;;5.17;;
15982;SDS011;14442;50.196;8.096;2022-09-24T10:44:19;20.03;;;4.43;;
15982;SDS011;14442;50.196;8.096;2022-09-24T10:46:49;17.27;;;4.07;;
15982;SDS011;14442;50.196;8.096;2022-09-24T10:49:28;20.60;;;5.57;;
15982;SDS011;14442;50.196;8.096;2022-09-24T10:52:08;12.10;;;4.73;;
15982;SDS011;14442;50.196;8.096;2022-09-24T10:54:47;7.73;;;3.83;;
15982;SDS011;14442;50.196;8.096;2022-09-24T10:57:23;19.70;;;4.23;;
15982;SDS011;14442;50.196;8.096;2022-09-24T10:59:58;10.80;;;4.30;;
15982;SDS011;14442;50.196;8.096;2022-09-24T11:02:40;12.07;;;3.93;;
15982;SDS011;14442;50.196;8.096;2022-09-24T11:05:21;15.43;;;4.47;;
15982;SDS011;14442;50.196;8.096;2022-09-24T11:07:53;10.77;;;3.80;;
15982;SDS011;14442;50.196;8.096;2022-09-24T11:13:36;8.73;;;3.80;;
15982;SDS011;14442;50.196;8.096;2022-09-24T11:16:14;10.80;;;3.87;;
15982;SDS011;14442;50.196;8.096;2022-09-24T11:18:53;9.37;;;3.40;;
15982;SDS011;14442;50.196;8.096;2022-09-24T11:21:27;11.57;;;3.37;;
15982;SDS011;14442;50.196;8.096;2022-09-24T11:24:17;13.13;;;3.80;;
15982;SDS011;14442;50.196;8.096;2022-09-24T11:26:59;9.00;;;3.40;;
15982;SDS011;14442;50.196;8.096;2022-09-24T11:29:44;6.53;;;3.50;;
15982;SDS011;14442;50.196;8.096;2022-09-24T11:32:24;9.47;;;3.53;;
15982;SDS011;14442;50.196;8.096;2022-09-24T11:35:00;10.13;;;3.03;;
15982;SDS011;14442;50.196;8.096;2022-09-24T11:37:46;9.07;;;3.93;;
15982;SDS011;14442;50.196;8.096;2022-09-24T11:40:30;6.60;;;3.07;;
15982;SDS011;14442;50.196;8.096;2022-09-24T11:43:13;8.43;;;3.07;;
15982;SDS011;14442;50.196;8.096;2022-09-24T11:45:50;8.63;;;3.47;;
15982;SDS011;14442;50.196;8.096;2022-09-24T11:48:39;6.30;;;3.17;;
15982;SDS011;14442;50.196;8.096;2022-09-24T11:51:25;8.43;;;3.10;;
15982;SDS011;14442;50.196;8.096;2022-09-24T11:54:02;7.27;;;3.40;;
15982;SDS011;14442;50.196;8.096;2022-09-24T11:56:39;7.03;;;3.00;;
15982;SDS011;14442;50.196;8.096;2022-09-24T11:59:12;6.03;;;2.63;;
15982;SDS011;14442;50.196;8.096;2022-09-24T12:01:45;8.77;;;3.60;;
15982;SDS011;14442;50.196;8.096;2022-09-24T12:04:18;4.90;;;3.03;;
15982;SDS011;14442;50.196;8.096;2022-09-24T12:06:51;6.50;;;2.70;;
15982;SDS011;14442;50.196;8.096;2022-09-24T12:09:24;7.00;;;3.07;;
15982;SDS011;14442;50.196;8.096;2022-09-24T12:11:59;5.70;;;2.80;;
15982;SDS011;14442;50.196;8.096;2022-09-24T12:14:36;5.47;;;2.63;;
15982;SDS011;14442;50.196;8.096;2022-09-24T12:17:13;5.57;;;2.67;;
15982;SDS011;14442;50.196;8.096;2022-09-24T12:19:46;4.00;;;2.63;;
15982;SDS011;14442;50.196;8.096;2022-09-24T12:22:15;4.10;;;3.27;;
15982;SDS011;14442;50.196;8.096;2022-09-24T12:24:45;4.50;;;2.53;;
15982;SDS011;14442;50.196;8.096;2022-09-24T12:27:18;4.97;;;2.57;;
15982;SDS011;14442;50.196;8.096;2022-09-24T12:29:49;4.80;;;2.70;;
15982;SDS011;14442;50.196;8.096;2022-09-24T12:32:48;8.73;;;2.77;;
15982;SDS011;14442;50.196;8.096;2022-09-24T12:35:22;6.67;;;2.50;;
15982;SDS011;14442;50.196;8.096;2022-09-24T12:37:59;3.37;;;2.20;;
15982;SDS011;14442;50.196;8.096;2022-09-24T12:40:44;4.97;;;2.93;;
15982;SDS011;14442;50.196;8.096;2022-09-24T12:43:28;4.80;;;2.40;;
15982;SDS011;14442;50.196;8.096;2022-09-24T12:46:02;6.13;;;2.80;;
15982;SDS011;14442;50.196;8.096;2022-09-24T12:48:34;5.93;;;2.50;;
15982;SDS011;14442;50.196;8.096;2022-09-24T12:51:03;6.20;;;2.90;;
15982;SDS011;14442;50.196;8.096;2022-09-24T12:53:35;3.83;;;2.70;;
15982;SDS011;14442;50.196;8.096;2022-09-24T12:56:03;4.07;;;2.70;;
15982;SDS011;14442;50.196;8.096;2022-09-24T12:58:37;4.63;;;3.00;;
15982;SDS011;14442;50.196;8.096;2022-09-24T13:01:11;9.23;;;2.60;;
15982;SDS011;14442;50.196;8.096;2022-09-24T13:03:39;4.03;;;2.60;;
15982;SDS011;14442;50.196;8.096;2022-09-24T13:06:20;4.97;;;3.00;;
15982;SDS011;14442;50.196;8.096;2022-09-24T13:08:55;8.33;;;3.17;;
15982;SDS011;14442;50.196;8.096;2022-09-24T13:11:29;3.90;;;2.80;;
15982;SDS011;14442;50.196;8.096;2022-09-24T13:13:59;3.77;;;2.40;;
15982;SDS011;14442;50.196;8.096;2022-09-24T13:16:31;6.73;;;2.83;;
15982;SDS011;14442;50.196;8.096;2022-09-24T13:19:03;3.93;;;2.73;;
15982;SDS011;14442;50.196;8.096;2022-09-24T13:21:51;6.37;;;3.00;;
15982;SDS011;14442;50.196;8.096;2022-09-24T13:24:22;3.87;;;2.77;;
15982;SDS011;14442;50.196;8.096;2022-09-24T13:26:52;4.63;;;2.60;;
15982;SDS011;14442;50.196;8.096;2022-09-24T13:29:24;4.03;;;2.80;;
15982;SDS011;14442;50.196;8.096;2022-09-24T13:31:52;6.20;;;2.83;;
15982;SDS011;14442;50.196;8.096;2022-09-24T13:34:25;5.43;;;3.47;;
15982;SDS011;14442;50.196;8.096;2022-09-24T13:36:54;3.50;;;2.80;;
15982;SDS011;14442;50.196;8.096;2022-09-24T13:39:24;4.07;;;2.70;;
15982;SDS011;14442;50.196;8.096;2022-09-24T13:41:58;4.33;;;3.17;;
15982;SDS011;14442;50.196;8.096;2022-09-24T13:44:32;4.83;;;3.07;;
15982;SDS011;14442;50.196;8.096;2022-09-24T13:47:03;5.87;;;2.83;;
15982;SDS011;14442;50.196;8.096;2022-09-24T13:49:37;4.63;;;3.23;;
15982;SDS011;14442;50.196;8.096;2022-09-24T13:52:08;6.30;;;2.83;;
15982;SDS011;14442;50.196;8.096;2022-09-24T13:54:44;3.93;;;2.87;;
15982;SDS011;14442;50.196;8.096;2022-09-24T13:57:21;4.73;;;3.10;;
15982;SDS011;14442;50.196;8.096;2022-09-24T14:00:02;5.73;;;3.10;;
15982;SDS011;14442;50.196;8.096;2022-09-24T14:02:30;4.37;;;3.00;;
15982;SDS011;14442;50.196;8.096;2022-09-24T14:05:01;3.03;;;2.67;;
15982;SDS011;14442;50.196;8.096;2022-09-24T14:07:28;5.03;;;2.80;;
15982;SDS011;14442;50.196;8.096;2022-09-24T14:10:02;5.27;;;3.00;;
15982;SDS011;14442;50.196;8.096;2022-09-24T14:12:30;5.33;;;3.10;;
15982;SDS011;14442;50.196;8.096;2022-09-24T14:14:57;3.90;;;2.73;;
15982;SDS011;14442;50.196;8.096;2022-09-24T14:17:25;4.37;;;2.87;;
15982;SDS011;14442;50.196;8.096;2022-09-24T14:19:53;4.53;;;2.83;;
15982;SDS011;14442;50.196;8.096;2022-09-24T14:22:21;5.13;;;2.73;;
15982;SDS011;14442;50.196;8.096;2022-09-24T14:24:52;5.77;;;2.83;;
15982;SDS011;14442;50.196;8.096;2022-09-24T14:27:20;4.43;;;2.90;;
15982;SDS011;14442;50.196;8.096;2022-09-24T14:29:49;8.83;;;2.87;;
15982;SDS011;14442;50.196;8.096;2022-09-24T14:32:20;4.10;;;2.60;;
15982;SDS011;14442;50.196;8.096;2022-09-24T14:34:51;7.20;;;2.70;;
15982;SDS011;14442;50.196;8.096;2022-09-24T14:37:21;8.13;;;3.50;;
15982;SDS011;14442;50.196;8.096;2022-09-24T14:39:57;5.17;;;2.80;;
15982;SDS011;14442;50.196;8.096;2022-09-24T14:42:26;8.67;;;3.17;;
15982;SDS011;14442;50.196;8.096;2022-09-24T14:44:56;6.77;;;3.03;;
15982;SDS011;14442;50.196;8.096;2022-09-24T14:47:25;5.97;;;3.00;;
15982;SDS011;14442;50.196;8.096;2022-09-24T14:49:54;9.63;;;2.53;;
15982;SDS011;14442;50.196;8.096;2022-09-24T14:52:24;12.20;;;3.43;;
15982;SDS011;14442;50.196;8.096;2022-09-24T14:54:59;7.90;;;2.83;;
15982;SDS011;14442;50.196;8.096;2022-09-24T14:57:34;8.70;;;3.17;;
15982;SDS011;14442;50.196;8.096;2022-09-24T15:00:02;9.40;;;2.70;;
15982;SDS011;14442;50.196;8.096;2022-09-24T15:02:45;8.40;;;2.87;;
15982;SDS011;14442;50.196;8.096;2022-09-24T15:05:16;7.70;;;3.03;;
15982;SDS011;14442;50.196;8.096;2022-09-24T15:07:48;12.27;;;3.00;;
15982;SDS011;14442;50.196;8.096;2022-09-24T15:10:19;8.70;;;2.80;;
15982;SDS011;14442;50.196;8.096;2022-09-24T15:12:48;9.27;;;2.67;;